Galloway, Ohio
Current Conditions -  °F | °C
As of 2:35 AM on Thursday 23 Oct 2014 (Local Time) from KTZR Reporting Station
Broken Clouds Broken Clouds  
Wind Chill: 42°   Ceiling: 3500
Heat Index: 45°   Visibility: 10mi
Dew Point: 41°   Wind: 6mph
Humidity: 86%   Direction: 330°NNW
Pressure: 30.24"   Gusts: NA
Location:  39.91°N, 83.16°W
Report Text: KTZR 230635Z AUTO 33005KT 10SM BKN035 07/05 A3024 RMK AO2 T00710049
Loading
Personal Weather Stations






























Interactive Weather Map
Tropical Storm Tracking
New forecast layout! Learn more

10-Day Weather Forecast

Advertisements
Track Severe Weather on mobile